createdAt,value
2017-08-20T00:03:10.283Z,4.8
2017-08-20T00:13:25.706Z,4.8
2017-08-20T00:23:41.102Z,4.6
2017-08-20T00:33:55.942Z,4.7
2017-08-20T00:44:10.923Z,4.8
2017-08-20T00:54:26.542Z,5
2017-08-20T01:04:40.651Z,5.2
2017-08-20T01:14:55.336Z,5.2
2017-08-20T01:25:09.205Z,5.2
2017-08-20T01:35:24.498Z,5.2
2017-08-20T01:45:38.687Z,5.3
2017-08-20T01:55:53.094Z,5
2017-08-20T02:06:07.432Z,4.8
2017-08-20T02:16:22.348Z,4.6
2017-08-20T02:26:38.013Z,4.7
2017-08-20T02:36:52.304Z,5
2017-08-20T02:47:07.500Z,5.9
2017-08-20T02:57:22.554Z,6.6
2017-08-20T03:07:37.313Z,7
2017-08-20T03:17:51.060Z,6.8
2017-08-20T03:28:05.404Z,7
2017-08-20T03:38:19.318Z,6.8
2017-08-20T03:48:33.469Z,7.9
2017-08-20T03:58:47.316Z,8.7
2017-08-20T04:09:01.700Z,8.6
2017-08-20T04:19:16.505Z,8.5
2017-08-20T04:29:31.969Z,8.4
2017-08-20T04:39:47.378Z,8.2
2017-08-20T04:50:02.150Z,7.9
2017-08-20T05:00:16.722Z,7.9
2017-08-20T05:10:30.783Z,8.5
2017-08-20T05:20:45.468Z,9.6
2017-08-20T05:31:00.188Z,11.1
2017-08-20T05:41:14.251Z,13.2
2017-08-20T05:51:28.895Z,14.3
2017-08-20T06:01:42.820Z,15.4
2017-08-20T06:11:56.927Z,19.1
2017-08-20T06:22:11.889Z,23.8
2017-08-20T06:32:25.854Z,29.2
2017-08-20T06:42:40.187Z,28.5
2017-08-20T06:52:54.004Z,29.2
2017-08-20T07:03:09.692Z,34.1
2017-08-20T07:13:24.170Z,37.9
2017-08-20T07:23:38.970Z,44.8
2017-08-20T07:33:54.440Z,57.7
2017-08-20T07:44:09.019Z,67.4
2017-08-20T07:54:22.897Z,60.4
2017-08-20T08:04:37.209Z,65.8
2017-08-20T08:14:52.160Z,78.7
2017-08-20T08:25:07.999Z,83.1
2017-08-20T08:35:22.832Z,87.4
2017-08-20T08:45:38.099Z,88.2
2017-08-20T08:55:52.771Z,87.2
2017-08-20T09:06:06.664Z,89.5
2017-08-20T09:16:20.890Z,88.6
2017-08-20T09:26:34.783Z,88.3
2017-08-20T09:36:49.860Z,87.6
2017-08-20T09:47:05.019Z,87.7
2017-08-20T09:57:18.906Z,87.7
2017-08-20T10:07:33.743Z,82.9
2017-08-20T10:17:48.849Z,85.8
2017-08-20T10:28:03.430Z,87.2
2017-08-20T10:38:18.362Z,88.3
2017-08-20T10:48:32.477Z,87.9
2017-08-20T10:58:47.757Z,87.5
2017-08-20T11:09:02.802Z,87
2017-08-20T11:19:16.866Z,85.4
2017-08-20T11:29:30.819Z,84.6
2017-08-20T11:39:45.978Z,87.1
2017-08-20T11:50:01.351Z,86.1
2017-08-20T12:00:17.009Z,82.3
2017-08-20T12:10:31.937Z,82.8
2017-08-20T12:20:46.436Z,82.8
2017-08-20T12:31:01.175Z,84.3
2017-08-20T12:41:15.510Z,85.8
2017-08-20T12:51:30.074Z,82.8
2017-08-20T13:01:44.059Z,82.8
2017-08-20T13:11:58.911Z,83.7
2017-08-20T13:22:13.785Z,83.9
2017-08-20T13:32:29.481Z,84.2
2017-08-20T13:42:43.467Z,85.3
2017-08-20T13:52:59.055Z,84
2017-08-20T14:03:14.081Z,84.7
2017-08-20T14:13:29.674Z,86.4
2017-08-20T14:23:45.396Z,86.3
2017-08-20T14:33:59.698Z,81.5
2017-08-20T14:44:13.661Z,80.3
2017-08-20T14:54:28.446Z,81.8
2017-08-20T15:04:42.975Z,83.2
2017-08-20T15:14:57.318Z,86.4
2017-08-20T15:25:12.631Z,85.9
2017-08-20T15:35:26.689Z,86.9
2017-08-20T15:45:42.203Z,85.4
2017-08-20T15:55:57.168Z,85.5
2017-08-20T16:06:11.388Z,84.2
2017-08-20T16:16:25.748Z,84.4
2017-08-20T16:26:40.110Z,83.9
2017-08-20T16:36:54.870Z,84.7
2017-08-20T16:47:09.751Z,84
2017-08-20T16:57:25.118Z,84.5
2017-08-20T17:07:39.160Z,84.2
2017-08-20T17:17:53.071Z,85.8
2017-08-20T17:28:08.445Z,86
2017-08-20T17:38:23.918Z,85.8
2017-08-20T17:48:37.833Z,85.5
2017-08-20T17:58:53.559Z,82.6
2017-08-20T18:09:08.312Z,88.4
2017-08-20T18:19:22.960Z,88.1
2017-08-20T18:29:38.119Z,88.2
2017-08-20T18:39:53.352Z,87.7
2017-08-20T18:50:08.753Z,87
2017-08-20T19:00:23.171Z,79.7
2017-08-20T19:10:38.697Z,74.1
2017-08-20T19:20:52.485Z,66.8
2017-08-20T19:31:07.241Z,66.9
2017-08-20T19:41:21.667Z,62.6
2017-08-20T19:51:37.002Z,54.8
2017-08-20T20:01:52.465Z,50.1
2017-08-20T20:12:07.190Z,58
2017-08-20T20:22:21.806Z,50.7
2017-08-20T20:32:36.799Z,37.5
2017-08-20T20:42:50.767Z,30.4
2017-08-20T20:53:05.105Z,24.8
2017-08-20T21:03:20.042Z,21.3
2017-08-20T21:13:34.147Z,17.4
2017-08-20T21:23:49.757Z,13.6
2017-08-20T21:34:05.217Z,28.4
2017-08-20T21:44:19.346Z,19
2017-08-20T21:54:33.810Z,11.9
2017-08-20T22:04:48.557Z,9.2
2017-08-20T22:15:04.024Z,11.1
2017-08-20T22:25:18.744Z,10.3
2017-08-20T22:35:32.592Z,7.1
2017-08-20T22:45:46.961Z,7.2
2017-08-20T22:56:02.422Z,10.2
2017-08-20T23:06:16.390Z,7.5
2017-08-20T23:16:31.560Z,9.6
2017-08-20T23:26:46.887Z,10.1
2017-08-20T23:37:01.322Z,10.9
2017-08-20T23:47:16.794Z,8.5
2017-08-20T23:57:31.354Z,7.9
